createdAt,value
2018-04-07T00:01:37.709Z,30.00
2018-04-07T00:04:04.688Z,30.00
2018-04-07T00:06:31.712Z,30.00
2018-04-07T00:08:58.702Z,30.50
2018-04-07T00:11:26.506Z,30.00
2018-04-07T00:13:53.514Z,30.00
2018-04-07T00:16:20.501Z,30.00
2018-04-07T00:18:47.511Z,29.90
2018-04-07T00:21:15.289Z,30.00
2018-04-07T00:23:42.277Z,30.00
2018-04-07T00:26:09.287Z,30.00
2018-04-07T00:28:36.268Z,30.00
2018-04-07T00:31:03.273Z,29.90
2018-04-07T00:33:30.280Z,29.90
2018-04-07T00:35:57.291Z,29.90
2018-04-07T00:38:24.282Z,29.90
2018-04-07T00:40:51.286Z,29.90
2018-04-07T00:43:18.334Z,29.90
2018-04-07T00:45:45.326Z,29.90
2018-04-07T00:48:12.333Z,29.90
2018-04-07T00:50:39.331Z,29.90
2018-04-07T00:53:06.509Z,29.80
2018-04-07T00:55:33.521Z,30.30
2018-04-07T00:58:01.282Z,29.80
2018-04-07T01:00:29.066Z,29.80
2018-04-07T01:02:56.152Z,29.80
2018-04-07T01:05:23.176Z,29.90
2018-04-07T01:07:50.189Z,29.80
2018-04-07T01:10:17.193Z,29.80
2018-04-07T01:12:44.322Z,29.80
2018-04-07T01:15:11.330Z,29.80
2018-04-07T01:17:38.337Z,29.80
2018-04-07T01:20:05.346Z,29.80
2018-04-07T01:22:33.133Z,29.80
2018-04-07T01:25:00.130Z,29.70
2018-04-07T01:27:27.174Z,29.70
2018-04-07T01:29:54.165Z,29.80
2018-04-07T01:32:21.319Z,30.20
2018-04-07T01:34:48.327Z,29.70
2018-04-07T01:37:16.096Z,30.10
2018-04-07T01:39:43.087Z,29.70
2018-04-07T01:42:10.124Z,29.60
2018-04-07T01:44:37.122Z,29.70
2018-04-07T01:47:05.615Z,29.70
2018-04-07T01:49:32.633Z,29.70
2018-04-07T01:51:59.752Z,29.60
2018-04-07T01:54:26.743Z,29.70
2018-04-07T01:56:53.769Z,29.70
2018-04-07T01:59:20.757Z,29.60
2018-04-07T02:01:48.555Z,29.70
2018-04-07T02:04:15.576Z,29.60
2018-04-07T02:06:42.582Z,29.60
2018-04-07T02:09:09.569Z,29.60
2018-04-07T02:11:37.355Z,29.60
2018-04-07T02:14:04.387Z,29.60
2018-04-07T02:16:31.380Z,29.60
2018-04-07T02:18:58.371Z,29.60
2018-04-07T02:21:26.183Z,29.60
2018-04-07T02:23:53.174Z,29.60
2018-04-07T02:26:20.166Z,29.60
2018-04-07T02:28:47.158Z,29.50
2018-04-07T02:31:14.350Z,29.60
2018-04-07T02:33:41.379Z,29.50
2018-04-07T02:36:08.373Z,29.50
2018-04-07T02:38:35.379Z,29.60
2018-04-07T02:41:03.133Z,29.60
2018-04-07T02:43:30.152Z,29.60
2018-04-07T02:45:57.153Z,29.50
2018-04-07T02:48:24.166Z,29.50
2018-04-07T02:50:51.961Z,29.50
2018-04-07T02:53:19.016Z,29.50
2018-04-07T02:55:46.030Z,29.50
2018-04-07T02:58:13.032Z,29.50
2018-04-07T03:00:40.026Z,29.50
2018-04-07T03:03:07.818Z,29.50
2018-04-07T03:05:34.824Z,29.50
2018-04-07T03:08:01.839Z,29.50
2018-04-07T03:10:28.841Z,29.50
2018-04-07T03:12:56.632Z,29.50
2018-04-07T03:15:23.632Z,29.50
2018-04-07T03:17:50.634Z,29.50
2018-04-07T03:20:17.645Z,29.50
2018-04-07T03:22:45.460Z,29.50
2018-04-07T03:25:12.447Z,29.50
2018-04-07T03:27:39.711Z,29.50
2018-04-07T03:30:06.975Z,29.50
2018-04-07T03:32:34.025Z,29.40
2018-04-07T03:35:01.029Z,29.40
2018-04-07T03:37:28.023Z,29.40
2018-04-07T03:39:54.999Z,29.50
2018-04-07T03:42:22.047Z,29.40
2018-04-07T03:44:49.033Z,29.50
2018-04-07T03:47:17.839Z,29.40
2018-04-07T03:49:45.616Z,29.30
2018-04-07T03:52:12.686Z,29.30
2018-04-07T03:54:39.673Z,29.30
2018-04-07T03:57:06.673Z,29.30
2018-04-07T03:59:33.665Z,29.30
2018-04-07T04:02:01.471Z,29.80
2018-04-07T04:04:28.474Z,29.30
2018-04-07T04:06:55.492Z,29.30
2018-04-07T04:09:22.492Z,29.30
2018-04-07T04:11:49.662Z,29.30
2018-04-07T04:14:16.664Z,29.30
2018-04-07T04:16:45.172Z,29.30
2018-04-07T04:19:12.159Z,29.30
2018-04-07T04:21:39.302Z,29.30
2018-04-07T04:24:06.289Z,29.30
2018-04-07T04:26:33.303Z,29.30
2018-04-07T04:29:00.298Z,29.30
2018-04-07T04:31:28.228Z,29.30
2018-04-07T04:33:55.211Z,29.30
2018-04-07T04:36:23.197Z,29.30
2018-04-07T04:38:50.200Z,29.30
2018-04-07T04:41:17.311Z,29.30
2018-04-07T04:43:45.093Z,29.20
2018-04-07T04:46:12.118Z,29.30
2018-04-07T04:48:39.110Z,29.30
2018-04-07T04:51:06.111Z,29.20
2018-04-07T04:53:33.113Z,29.20
2018-04-07T04:56:00.167Z,29.20
2018-04-07T04:58:27.925Z,29.20
2018-04-07T05:00:54.916Z,29.20
2018-04-07T05:03:21.936Z,29.20
2018-04-07T05:05:48.937Z,29.20
2018-04-07T05:08:15.938Z,29.20
2018-04-07T05:10:42.945Z,29.20
2018-04-07T05:13:10.204Z,29.20
2018-04-07T05:15:37.384Z,29.20
2018-04-07T05:18:04.392Z,29.70
2018-04-07T05:20:31.397Z,29.10
2018-04-07T05:22:58.560Z,29.10
2018-04-07T05:25:25.583Z,29.10
2018-04-07T05:27:52.615Z,29.10
2018-04-07T05:30:19.636Z,29.10
2018-04-07T05:32:48.169Z,29.10
2018-04-07T05:35:15.169Z,29.10
2018-04-07T05:37:42.477Z,29.10
2018-04-07T05:40:09.508Z,29.20
2018-04-07T05:42:36.685Z,29.00
2018-04-07T05:45:04.097Z,29.00
2018-04-07T05:47:31.201Z,29.00
2018-04-07T05:49:58.197Z,29.00
2018-04-07T05:52:27.001Z,29.00
2018-04-07T05:54:54.044Z,29.00
2018-04-07T05:57:21.124Z,29.00
2018-04-07T05:59:48.320Z,28.90
2018-04-07T06:02:16.112Z,28.90
2018-04-07T06:04:44.082Z,29.00
2018-04-07T06:07:11.102Z,29.00
2018-04-07T06:09:38.088Z,29.00
2018-04-07T06:12:05.253Z,29.00
2018-04-07T06:14:32.983Z,29.10
2018-04-07T06:17:00.733Z,29.20
2018-04-07T06:19:27.737Z,29.20
2018-04-07T06:21:54.866Z,29.20
2018-04-07T06:24:21.855Z,29.20
2018-04-07T06:26:48.858Z,29.20
2018-04-07T06:29:15.861Z,29.20
2018-04-07T06:31:43.073Z,29.30
2018-04-07T06:34:10.073Z,29.30
2018-04-07T06:36:37.065Z,29.40
2018-04-07T06:39:04.064Z,29.40
2018-04-07T06:41:32.010Z,29.40
2018-04-07T06:44:00.512Z,29.50
2018-04-07T06:46:27.535Z,29.50
2018-04-07T06:48:54.522Z,29.40
2018-04-07T06:51:21.718Z,29.60
2018-04-07T06:53:48.711Z,29.80
2018-04-07T06:56:15.698Z,29.60
2018-04-07T06:58:42.698Z,29.60
2018-04-07T07:01:10.464Z,29.80
2018-04-07T07:03:37.493Z,29.80
2018-04-07T07:06:04.489Z,29.80
2018-04-07T07:08:31.517Z,29.70
2018-04-07T07:10:59.492Z,29.60
2018-04-07T07:13:26.492Z,29.60
2018-04-07T07:15:53.505Z,29.70
2018-04-07T07:18:20.524Z,29.70
2018-04-07T07:20:47.520Z,29.70
2018-04-07T07:23:14.724Z,29.70
2018-04-07T07:25:41.747Z,29.80
2018-04-07T07:28:10.247Z,30.00
2018-04-07T07:30:37.241Z,30.00
2018-04-07T07:33:04.373Z,30.00
2018-04-07T07:35:31.424Z,30.00
2018-04-07T07:37:58.412Z,30.00
2018-04-07T07:40:26.318Z,30.00
2018-04-07T07:42:53.369Z,30.00
2018-04-07T07:45:20.371Z,30.00
2018-04-07T07:47:47.364Z,30.10
2018-04-07T07:50:14.356Z,30.20
2018-04-07T07:52:41.572Z,30.20
2018-04-07T07:55:08.581Z,30.40
2018-04-07T07:57:35.569Z,30.20
2018-04-07T08:00:02.592Z,27.80
2018-04-07T08:02:29.757Z,27.80
2018-04-07T08:04:56.764Z,27.40
2018-04-07T08:07:23.777Z,27.40
2018-04-07T08:09:50.762Z,27.70
2018-04-07T08:12:18.592Z,27.90
2018-04-07T08:14:45.591Z,27.90
2018-04-07T08:17:13.328Z,27.90
2018-04-07T08:19:41.935Z,27.70
2018-04-07T08:22:09.825Z,27.60
2018-04-07T08:24:36.835Z,27.60
2018-04-07T08:27:03.832Z,27.40
2018-04-07T08:29:30.847Z,27.40
2018-04-07T08:31:58.011Z,27.60
2018-04-07T08:34:25.017Z,27.60
2018-04-07T08:36:52.029Z,27.60
2018-04-07T08:39:19.097Z,27.60
2018-04-07T08:41:46.221Z,27.80
2018-04-07T08:44:13.225Z,27.20
2018-04-07T08:46:40.219Z,27.20
2018-04-07T08:49:07.256Z,27.00
2018-04-07T08:51:34.445Z,27.10
2018-04-07T08:54:01.429Z,27.50
2018-04-07T08:56:28.430Z,27.20
2018-04-07T08:58:55.434Z,27.20
2018-04-07T09:01:22.589Z,27.80
2018-04-07T09:03:49.592Z,27.60
2018-04-07T09:06:16.600Z,27.40
2018-04-07T09:08:43.603Z,27.90
2018-04-07T09:11:11.405Z,27.60
2018-04-07T09:13:38.411Z,27.60
2018-04-07T09:16:05.401Z,27.60
2018-04-07T09:18:32.422Z,27.30
2018-04-07T09:20:59.419Z,27.90
2018-04-07T09:23:26.416Z,27.60
2018-04-07T09:25:53.434Z,27.70
2018-04-07T09:28:20.437Z,28.10
2018-04-07T09:30:47.448Z,28.10
2018-04-07T09:33:14.647Z,27.20
2018-04-07T09:35:41.635Z,28.10
2018-04-07T09:38:08.670Z,27.80
2018-04-07T09:40:35.672Z,27.80
2018-04-07T09:43:02.822Z,28.00
2018-04-07T09:45:29.793Z,27.80
2018-04-07T09:47:56.808Z,27.60
2018-04-07T09:50:23.810Z,28.00
2018-04-07T09:52:51.606Z,28.00
2018-04-07T09:55:18.598Z,28.00
2018-04-07T09:57:45.603Z,27.80
2018-04-07T10:00:12.592Z,28.00
2018-04-07T10:02:39.792Z,28.30
2018-04-07T10:05:06.805Z,28.10
2018-04-07T10:07:33.848Z,28.00
2018-04-07T10:10:00.839Z,27.80
2018-04-07T10:12:28.002Z,27.60
2018-04-07T10:14:54.984Z,28.00
2018-04-07T10:17:22.688Z,27.90
2018-04-07T10:19:49.690Z,27.80
2018-04-07T10:22:16.802Z,27.40
2018-04-07T10:24:43.791Z,27.50
2018-04-07T10:27:10.810Z,27.90
2018-04-07T10:29:37.814Z,27.90
2018-04-07T10:32:05.608Z,27.60
2018-04-07T10:34:32.584Z,27.00
2018-04-07T10:36:59.605Z,27.50
2018-04-07T10:39:26.609Z,27.90
2018-04-07T10:41:53.802Z,27.60
2018-04-07T10:44:20.796Z,28.00
2018-04-07T10:46:47.810Z,28.30
2018-04-07T10:49:14.813Z,27.90
2018-04-07T10:51:42.589Z,28.10
2018-04-07T10:54:09.658Z,28.10
2018-04-07T10:56:36.641Z,28.20
2018-04-07T10:59:03.646Z,28.10
2018-04-07T11:01:30.984Z,28.00
2018-04-07T11:03:58.080Z,27.90
2018-04-07T11:06:25.075Z,27.90
2018-04-07T11:08:52.068Z,27.70
2018-04-07T11:11:19.225Z,27.70
2018-04-07T11:13:46.229Z,28.10
2018-04-07T11:16:13.238Z,27.70
2018-04-07T11:18:40.236Z,27.80
2018-04-07T11:21:07.247Z,27.50
2018-04-07T11:23:35.011Z,27.60
2018-04-07T11:26:02.041Z,27.70
2018-04-07T11:28:30.574Z,28.20
2018-04-07T11:30:57.564Z,28.10
2018-04-07T11:33:24.557Z,28.30
2018-04-07T11:35:51.556Z,28.40
2018-04-07T11:38:18.545Z,28.30
2018-04-07T11:40:45.557Z,28.30
2018-04-07T11:43:12.645Z,28.30
2018-04-07T11:45:39.643Z,28.50
2018-04-07T11:48:08.142Z,28.70
2018-04-07T11:50:35.148Z,28.80
2018-04-07T11:53:02.283Z,28.70
2018-04-07T11:55:29.274Z,28.80
2018-04-07T11:57:56.285Z,28.80
2018-04-07T12:00:23.278Z,28.90
2018-04-07T12:02:51.080Z,28.90
2018-04-07T12:05:18.115Z,28.90
2018-04-07T12:07:45.109Z,28.90
2018-04-07T12:10:12.121Z,28.90
2018-04-07T12:12:39.256Z,29.00
2018-04-07T12:15:06.309Z,29.10
2018-04-07T12:17:34.045Z,29.20
2018-04-07T12:20:01.104Z,29.10
2018-04-07T12:22:29.092Z,29.20
2018-04-07T12:24:56.136Z,29.20
2018-04-07T12:27:23.945Z,29.70
2018-04-07T12:29:51.023Z,29.30
2018-04-07T12:32:19.412Z,29.30
2018-04-07T12:34:47.419Z,29.40
2018-04-07T12:37:14.647Z,29.30
2018-04-07T12:39:41.681Z,29.40
2018-04-07T12:42:08.805Z,29.40
2018-04-07T12:44:35.919Z,29.50
2018-04-07T12:47:03.005Z,29.50
2018-04-07T12:49:31.358Z,29.50
2018-04-07T12:51:59.206Z,30.00
2018-04-07T12:54:26.328Z,29.50
2018-04-07T12:56:53.483Z,29.50
2018-04-07T12:59:21.336Z,29.10
2018-04-07T13:01:49.021Z,29.10
2018-04-07T13:04:16.142Z,29.30
2018-04-07T13:06:43.979Z,29.30
2018-04-07T13:09:11.118Z,29.30
2018-04-07T13:11:38.293Z,29.30
2018-04-07T13:14:05.395Z,29.30
2018-04-07T13:16:33.182Z,29.30
2018-04-07T13:19:00.308Z,29.30
2018-04-07T13:21:27.669Z,29.30
2018-04-07T13:23:54.901Z,29.30
2018-04-07T13:26:22.296Z,29.20
2018-04-07T13:28:49.576Z,29.30
2018-04-07T13:31:16.713Z,29.30
2018-04-07T13:33:43.940Z,29.20
2018-04-07T13:36:11.004Z,29.30
2018-04-07T13:38:38.053Z,29.20
2018-04-07T13:41:05.268Z,29.30
2018-04-07T13:43:32.396Z,29.50
2018-04-07T13:45:59.412Z,29.50
2018-04-07T13:48:27.424Z,29.30
2018-04-07T13:50:54.558Z,29.30
2018-04-07T13:53:21.706Z,29.30
2018-04-07T13:55:48.690Z,29.20
2018-04-07T13:58:17.242Z,29.20
2018-04-07T14:00:44.319Z,29.10
2018-04-07T14:03:11.554Z,29.20
2018-04-07T14:05:38.895Z,29.20
2018-04-07T14:08:06.797Z,29.20
2018-04-07T14:10:33.802Z,29.20
2018-04-07T14:13:01.618Z,29.10
2018-04-07T14:15:28.627Z,29.10
2018-04-07T14:17:55.619Z,27.90
2018-04-07T14:20:22.637Z,28.10
2018-04-07T14:22:49.797Z,28.30
2018-04-07T14:25:16.789Z,28.60
2018-04-07T14:27:43.802Z,28.50
2018-04-07T14:30:10.790Z,28.70
2018-04-07T14:32:37.978Z,28.80
2018-04-07T14:35:04.977Z,28.90
2018-04-07T14:37:31.982Z,29.00
2018-04-07T14:39:58.975Z,29.70
2018-04-07T14:42:25.982Z,29.30
2018-04-07T14:44:52.970Z,29.30
2018-04-07T14:47:21.055Z,29.40
2018-04-07T14:49:48.038Z,29.40
2018-04-07T14:52:15.387Z,29.50
2018-04-07T14:54:42.389Z,29.50
2018-04-07T14:57:09.395Z,29.50
2018-04-07T14:59:36.381Z,29.60
2018-04-07T15:02:03.583Z,29.60
2018-04-07T15:04:30.574Z,29.60
2018-04-07T15:06:57.589Z,29.60
2018-04-07T15:09:24.592Z,29.70
2018-04-07T15:11:52.386Z,29.60
2018-04-07T15:14:19.386Z,29.60
2018-04-07T15:16:46.373Z,29.70
2018-04-07T15:19:13.382Z,29.70
2018-04-07T15:21:40.587Z,29.70
2018-04-07T15:24:07.579Z,29.70
2018-04-07T15:26:34.566Z,29.80
2018-04-07T15:29:01.583Z,29.70
2018-04-07T15:31:29.376Z,29.80
2018-04-07T15:33:56.393Z,29.80
2018-04-07T15:36:23.384Z,29.80
2018-04-07T15:38:50.396Z,29.80
2018-04-07T15:41:18.188Z,29.90
2018-04-07T15:43:45.179Z,29.90
2018-04-07T15:46:12.180Z,29.90
2018-04-07T15:48:39.160Z,29.90
2018-04-07T15:51:06.166Z,29.90
2018-04-07T15:53:33.205Z,29.90
2018-04-07T15:56:00.165Z,29.90
2018-04-07T15:58:27.163Z,29.90
2018-04-07T16:00:54.150Z,29.90
2018-04-07T16:03:21.141Z,29.90
2018-04-07T16:05:48.173Z,29.90
2018-04-07T16:08:15.170Z,29.90
2018-04-07T16:10:42.936Z,30.00
2018-04-07T16:13:10.008Z,29.90
2018-04-07T16:15:37.012Z,30.00
2018-04-07T16:18:04.018Z,29.90
2018-04-07T16:20:31.010Z,30.00
2018-04-07T16:22:58.226Z,29.90
2018-04-07T16:25:25.213Z,30.00
2018-04-07T16:27:52.226Z,30.00
2018-04-07T16:30:19.252Z,30.00
2018-04-07T16:32:46.538Z,30.00
2018-04-07T16:35:13.533Z,30.00
2018-04-07T16:37:41.297Z,29.90
2018-04-07T16:40:09.363Z,30.00
2018-04-07T16:42:36.465Z,29.90
2018-04-07T16:45:03.478Z,29.90
2018-04-07T16:47:31.119Z,29.90
2018-04-07T16:49:58.100Z,29.90
2018-04-07T16:52:25.319Z,29.90
2018-04-07T16:54:52.245Z,29.90
2018-04-07T16:57:19.229Z,29.90
2018-04-07T16:59:46.267Z,29.90
2018-04-07T17:02:13.421Z,29.90
2018-04-07T17:04:40.409Z,29.90
2018-04-07T17:07:07.432Z,29.90
2018-04-07T17:09:34.411Z,29.90
2018-04-07T17:12:01.619Z,29.90
2018-04-07T17:14:28.611Z,29.90
2018-04-07T17:16:55.601Z,30.00
2018-04-07T17:19:22.583Z,29.80
2018-04-07T17:21:49.584Z,29.90
2018-04-07T17:24:16.630Z,29.90
2018-04-07T17:26:43.652Z,29.90
2018-04-07T17:29:10.640Z,29.90
2018-04-07T17:31:37.803Z,29.90
2018-04-07T17:34:04.805Z,29.90
2018-04-07T17:36:31.806Z,29.90
2018-04-07T17:38:58.807Z,29.90
2018-04-07T17:41:26.596Z,30.00
2018-04-07T17:43:53.589Z,30.00
2018-04-07T17:46:20.596Z,30.00
2018-04-07T17:48:47.599Z,30.00
2018-04-07T17:51:15.398Z,30.00
2018-04-07T17:53:43.626Z,30.00
2018-04-07T17:56:10.619Z,30.00
2018-04-07T17:58:37.609Z,29.90
2018-04-07T18:01:04.608Z,30.00
2018-04-07T18:03:31.619Z,30.40
2018-04-07T18:05:58.624Z,30.20
2018-04-07T18:08:25.614Z,30.30
2018-04-07T18:10:53.407Z,29.70
2018-04-07T18:13:20.397Z,30.00
2018-04-07T18:15:47.397Z,30.10
2018-04-07T18:18:14.403Z,30.00
2018-04-07T18:20:41.423Z,30.20
2018-04-07T18:23:08.461Z,30.20
2018-04-07T18:25:35.491Z,30.10
2018-04-07T18:28:02.539Z,30.10
2018-04-07T18:30:29.541Z,30.30
2018-04-07T18:32:56.657Z,30.40
2018-04-07T18:35:23.644Z,30.60
2018-04-07T18:37:50.648Z,30.60
2018-04-07T18:40:17.660Z,30.70
2018-04-07T18:42:45.450Z,30.60
2018-04-07T18:45:12.452Z,30.60
2018-04-07T18:47:39.464Z,30.60
2018-04-07T18:50:06.730Z,30.60
2018-04-07T18:52:33.986Z,30.60
2018-04-07T18:55:01.019Z,30.60
2018-04-07T18:57:28.033Z,30.80
2018-04-07T18:59:55.780Z,30.80
2018-04-07T19:02:23.952Z,31.40
2018-04-07T19:04:51.722Z,30.70
2018-04-07T19:07:18.729Z,30.60
2018-04-07T19:09:45.779Z,30.70
2018-04-07T19:12:12.929Z,30.60
2018-04-07T19:14:39.920Z,30.60
2018-04-07T19:17:06.922Z,30.60
2018-04-07T19:19:33.916Z,30.60
2018-04-07T19:22:01.076Z,30.50
2018-04-07T19:24:28.076Z,30.50
2018-04-07T19:26:55.082Z,30.60
2018-04-07T19:29:22.096Z,31.30
2018-04-07T19:31:50.081Z,30.60
2018-04-07T19:34:17.081Z,30.50
2018-04-07T19:36:44.061Z,30.50
2018-04-07T19:39:11.067Z,30.40
2018-04-07T19:41:38.080Z,30.40
2018-04-07T19:44:05.065Z,30.50
2018-04-07T19:46:32.054Z,30.40
2018-04-07T19:48:59.054Z,30.40
2018-04-07T19:51:26.067Z,30.40
2018-04-07T19:53:53.052Z,30.40
2018-04-07T19:56:21.553Z,30.60
2018-04-07T19:58:48.549Z,30.50
2018-04-07T20:01:15.746Z,30.50
2018-04-07T20:03:42.736Z,30.70
2018-04-07T20:06:09.733Z,30.50
2018-04-07T20:08:36.749Z,30.50
2018-04-07T20:11:03.809Z,30.70
2018-04-07T20:13:30.839Z,31.00
2018-04-07T20:15:57.813Z,30.80
2018-04-07T20:18:24.841Z,30.80
2018-04-07T20:20:51.953Z,30.70
2018-04-07T20:23:18.969Z,30.90
2018-04-07T20:25:46.037Z,31.00
2018-04-07T20:28:13.054Z,31.20
2018-04-07T20:30:40.054Z,30.90
2018-04-07T20:33:07.159Z,31.00
2018-04-07T20:35:34.240Z,30.80
2018-04-07T20:38:01.261Z,30.90
2018-04-07T20:40:29.228Z,31.00
2018-04-07T20:42:56.344Z,31.60
2018-04-07T20:45:24.010Z,30.90
2018-04-07T20:47:51.021Z,31.20
2018-04-07T20:50:18.088Z,31.20
2018-04-07T20:52:45.127Z,31.00
2018-04-07T20:55:12.140Z,30.90
2018-04-07T20:57:39.129Z,30.90
2018-04-07T21:00:07.072Z,30.90
2018-04-07T21:02:34.747Z,30.80
2018-04-07T21:05:01.783Z,30.90
2018-04-07T21:07:28.778Z,30.80
2018-04-07T21:09:55.781Z,30.70
2018-04-07T21:12:22.961Z,30.70
2018-04-07T21:14:49.968Z,30.70
2018-04-07T21:17:16.974Z,30.60
2018-04-07T21:19:45.470Z,30.80
2018-04-07T21:22:13.390Z,30.80
2018-04-07T21:24:40.371Z,30.80
2018-04-07T21:27:07.366Z,30.80
2018-04-07T21:29:34.381Z,30.90
2018-04-07T21:32:02.365Z,30.90
2018-04-07T21:34:29.349Z,30.80
2018-04-07T21:36:56.338Z,30.80
2018-04-07T21:39:23.392Z,30.90
2018-04-07T21:41:50.585Z,31.00
2018-04-07T21:44:17.593Z,31.00
2018-04-07T21:46:45.348Z,30.90
2018-04-07T21:49:12.345Z,30.90
2018-04-07T21:51:39.398Z,30.80
2018-04-07T21:54:06.388Z,30.80
2018-04-07T21:56:36.156Z,30.80
2018-04-07T21:59:03.194Z,30.80
2018-04-07T22:01:30.254Z,30.90
2018-04-07T22:03:57.280Z,30.70
2018-04-07T22:06:24.284Z,30.70
2018-04-07T22:08:51.264Z,30.70
2018-04-07T22:11:18.485Z,30.80
2018-04-07T22:13:45.473Z,30.80
2018-04-07T22:16:12.921Z,30.80
2018-04-07T22:18:39.927Z,30.80
2018-04-07T22:21:06.909Z,30.80
2018-04-07T22:23:33.936Z,30.90
2018-04-07T22:26:00.934Z,30.90
2018-04-07T22:28:27.934Z,30.90
2018-04-07T22:30:54.990Z,30.80
2018-04-07T22:33:21.977Z,30.90
2018-04-07T22:35:48.994Z,30.90
2018-04-07T22:38:16.001Z,30.90
2018-04-07T22:40:43.055Z,30.90
2018-04-07T22:43:10.256Z,30.90
2018-04-07T22:45:37.965Z,30.90
2018-04-07T22:48:04.988Z,30.90
2018-04-07T22:50:32.028Z,30.90
2018-04-07T22:52:59.058Z,30.80
2018-04-07T22:55:26.062Z,30.90
2018-04-07T22:57:53.097Z,30.90
2018-04-07T23:00:21.596Z,30.90
2018-04-07T23:02:48.684Z,30.90
2018-04-07T23:05:15.688Z,31.50
2018-04-07T23:07:42.702Z,30.80
2018-04-07T23:10:09.689Z,30.70
2018-04-07T23:12:37.495Z,30.70
2018-04-07T23:15:04.520Z,30.70
2018-04-07T23:17:31.541Z,30.60
2018-04-07T23:19:58.550Z,30.60
2018-04-07T23:22:25.687Z,30.50
2018-04-07T23:24:52.679Z,30.60
2018-04-07T23:27:21.219Z,30.60
2018-04-07T23:29:48.197Z,30.60
2018-04-07T23:32:15.496Z,30.60
2018-04-07T23:34:42.489Z,30.60
2018-04-07T23:37:09.486Z,30.60
2018-04-07T23:39:36.502Z,30.70
2018-04-07T23:42:03.500Z,30.60
2018-04-07T23:44:30.505Z,30.60
2018-04-07T23:46:57.521Z,30.60
2018-04-07T23:49:24.514Z,30.60
2018-04-07T23:51:51.701Z,30.60
2018-04-07T23:54:18.693Z,30.60
2018-04-07T23:56:45.695Z,30.60
2018-04-07T23:59:12.718Z,30.60
